Garfield, Ohio
Current Conditions -  °F | °C
As of 11:53 PM on Tuesday 25 Nov 2014 (Local Time) from KBKL Reporting Station
Overcast Overcast  
Wind Chill: 33°   Ceiling: 2400
Heat Index: 33°   Visibility: 10mi
Dew Point: 23°   Wind: 3mph
Humidity: 66%   Direction: 310°NW
Pressure: 30.19"   Gusts: NA
Location:  41.4062°N, 81.6149°W
Report Text: KBKL 260453Z 31003KT 10SM OVC024 01/M05 A3019 RMK AO2 SLP230 T00061050 400500006
Loading
Personal Weather Stations






























Interactive Weather Map New forecast layout! Learn more

10-Day Weather Forecast

Advertisements
Track Severe Weather on mobile